Terminal Aerodrome Forecast
Issued by NWS

Home | Current Version | Previous Version | Text Only | Print | Product List | Glossary On
Versions: 1 2 3 4 5 6 7 8 9 10 11 12 13 14 15 16 17
499
FTUS44 KCRP 271120
TAFLRD
TAF
KLRD 271120Z 2712/2812 06007KT P6SM SCT017 BKN150
      TEMPO 2712/2716 BKN017
     FM271600 06006KT P6SM VCSH SCT025 BKN050 PROB30 2721/2801 -TSRA
      BKN025CB
     FM280100 VRB04KT P6SM SCT020 BKN050=

USA.gov is the U.S. government's official web portal to all federal, state and local government web resources and services.